Time;durP1;ratioP1;P1;durP2;ratioP2;P2;SDS_P1;SDS_P2;PMS_P1;PMS_P2;Temp;Humidity;BMP_temperature;BMP_pressure;BME280_temperature;BME280_humidity;BME280_pressure;Samples;Min_cycle;Max_cycle;Signal;HPM_P1;HPM_P2
2023/03/10 00:00:03;;;;;;;68.32;15.30;;;10.60;99.90;;;;;;5059395;28;20168;-82
2023/03/10 00:02:45;;;;;;;67.80;13.85;;;10.70;99.90;;;;;;5040969;28;20219;-82
2023/03/10 00:05:34;;;;;;;69.28;13.13;;;10.60;99.90;;;;;;5040386;28;20231;-83
2023/03/10 00:08:04;;;;;;;68.20;13.95;;;10.60;99.90;;;;;;5058883;28;20181;-83
2023/03/10 00:10:59;;;;;;;67.78;14.65;;;10.60;99.90;;;;;;5041388;28;20172;-82
2023/03/10 00:14:01;;;;;;;;;;;;;;;;;;;;;
2023/03/10 00:16:29;;;;;;;68.00;13.00;;;10.60;99.90;;;;;;5017418;28;20273;-83
2023/03/10 00:19:09;;;;;;;66.97;11.75;;;10.60;99.90;;;;;;5016613;28;20197;-83
2023/03/10 00:21:35;;;;;;;67.82;11.05;;;10.60;99.90;;;;;;5049854;28;20259;-82
2023/03/10 00:24:04;;;;;;;68.00;14.53;;;10.60;99.90;;;;;;5058177;28;20188;-83
2023/03/10 00:26:32;;;;;;;67.47;12.70;;;10.50;99.90;;;;;;5040277;28;20542;-83
2023/03/10 00:29:01;;;;;;;66.38;11.70;;;10.50;99.90;;;;;;5057729;28;20235;-83
2023/03/10 00:31:46;;;;;;;66.93;10.43;;;10.50;99.90;;;;;;5057820;28;20563;-82
2023/03/10 00:34:12;;;;;;;67.63;11.93;;;10.50;99.90;;;;;;5040156;28;20631;-82
2023/03/10 00:36:43;;;;;;;68.93;14.10;;;10.50;99.90;;;;;;5057973;28;20188;-82
2023/03/10 00:39:12;;;;;;;67.90;10.40;;;10.50;99.90;;;;;;5039604;28;20199;-82
2023/03/10 00:41:40;;;;;;;66.05;7.82;;;10.50;99.90;;;;;;5039496;28;20173;-82
2023/03/10 00:44:09;;;;;;;66.05;8.10;;;10.60;99.90;;;;;;5057791;28;20598;-82
2023/03/10 00:46:38;;;;;;;65.78;8.00;;;10.70;99.90;;;;;;5057261;28;20180;-82
2023/03/10 00:49:09;;;;;;;65.43;7.00;;;10.70;99.90;;;;;;5057481;28;20188;-82
2023/03/10 00:51:37;;;;;;;66.72;7.55;;;10.70;99.90;;;;;;5039963;28;20161;-82
2023/03/10 00:54:03;;;;;;;64.80;6.10;;;10.70;99.90;;;;;;5040654;28;20168;-83
2023/03/10 00:56:29;;;;;;;66.17;8.20;;;10.60;99.90;;;;;;5039984;28;20222;-82
2023/03/10 00:59:00;;;;;;;65.65;8.32;;;10.60;99.90;;;;;;5039265;28;20557;-82
2023/03/10 01:01:34;;;;;;;65.85;7.40;;;10.60;99.90;;;;;;5057024;28;20206;-82
2023/03/10 01:04:10;;;;;;;65.10;5.90;;;10.50;99.90;;;;;;5056742;28;20635;-82
2023/03/10 01:06:36;;;;;;;65.10;6.07;;;10.50;99.90;;;;;;5056866;28;20160;-82
2023/03/10 01:09:03;;;;;;;66.20;6.87;;;10.50;99.90;;;;;;5038375;28;20284;-82
2023/03/10 01:11:29;;;;;;;66.85;8.85;;;10.40;99.90;;;;;;5056707;28;20408;-81
2023/03/10 01:13:58;;;;;;;65.22;5.75;;;10.40;99.90;;;;;;5038720;28;20164;-82
2023/03/10 01:16:24;;;;;;;65.70;6.10;;;10.40;99.90;;;;;;5038369;28;20532;-81
2023/03/10 01:18:52;;;;;;;65.22;6.20;;;10.40;99.90;;;;;;5055591;28;20226;-81
2023/03/10 01:21:26;;;;;;;67.43;10.05;;;10.40;99.90;;;;;;5055778;28;20183;-81
2023/03/10 01:23:52;;;;;;;65.85;6.80;;;10.50;99.90;;;;;;5021827;28;20172;-81
2023/03/10 01:26:19;;;;;;;65.82;7.65;;;10.50;99.90;;;;;;5054863;28;20164;-81
2023/03/10 01:28:45;;;;;;;66.30;7.90;;;10.50;99.90;;;;;;5037890;28;20746;-81
2023/03/10 01:31:11;;;;;;;66.55;9.95;;;10.50;99.90;;;;;;5055094;28;20167;-81
2023/03/10 01:36:16;;;;;;;65.63;6.40;;;10.50;99.90;;;;;;5198573;22;20680;-82
2023/03/10 01:38:43;;;;;;;65.63;6.82;;;10.50;99.90;;;;;;5036268;28;20612;-82
2023/03/10 01:41:10;;;;;;;65.85;7.43;;;10.50;99.90;;;;;;5035329;28;20177;-82
2023/03/10 01:43:37;;;;;;;65.22;5.60;;;10.50;99.90;;;;;;5035805;28;20587;-82
2023/03/10 01:46:03;;;;;;;65.97;5.22;;;10.50;99.90;;;;;;5035664;28;20165;-81
2023/03/10 01:48:34;;;;;;;65.27;6.23;;;10.50;99.90;;;;;;5026120;28;20193;-81
2023/03/10 01:51:00;;;;;;;65.32;6.18;;;10.60;99.90;;;;;;5033904;28;20303;-82
2023/03/10 01:53:27;;;;;;;65.15;5.80;;;10.50;99.90;;;;;;5035670;28;20280;-82
2023/03/10 01:56:00;;;;;;;67.60;7.07;;;10.50;99.90;;;;;;5035196;28;20675;-82
2023/03/10 01:58:34;;;;;;;65.80;6.82;;;10.60;99.90;;;;;;5027318;28;20165;-82
2023/03/10 02:01:02;;;;;;;69.97;7.63;;;10.60;99.90;;;;;;5034355;28;20170;-82
2023/03/10 02:03:35;;;;;;;66.75;9.02;;;10.60;99.90;;;;;;5035306;28;20186;-82
2023/03/10 02:06:05;;;;;;;66.25;8.43;;;10.60;99.90;;;;;;5035610;28;20233;-82
2023/03/10 02:08:36;;;;;;;66.70;9.68;;;10.50;99.90;;;;;;5035053;28;20249;-82
2023/03/10 02:11:02;;;;;;;68.00;10.80;;;10.50;99.90;;;;;;5036125;28;20664;-80
2023/03/10 02:13:28;;;;;;;68.43;11.88;;;10.50;99.90;;;;;;5035512;28;20177;-80
2023/03/10 02:15:54;;;;;;;69.07;13.30;;;10.50;99.90;;;;;;5030294;28;20647;-80
2023/03/10 02:18:21;;;;;;;68.57;13.93;;;10.50;99.90;;;;;;5035774;28;20656;-80
2023/03/10 02:21:04;;;;;;;68.72;12.20;;;10.60;99.90;;;;;;5035360;28;20236;-80
2023/03/10 02:23:54;;;;;;;68.05;12.70;;;10.60;99.90;;;;;;5035669;28;20181;-80
2023/03/10 02:26:26;;;;;;;68.00;10.23;;;10.60;99.90;;;;;;5035649;28;20181;-80
2023/03/10 02:28:53;;;;;;;67.90;10.73;;;10.60;99.90;;;;;;5035588;28;20656;-80
2023/03/10 02:31:20;;;;;;;68.82;12.90;;;10.60;99.90;;;;;;5035849;28;20514;-80
2023/03/10 02:33:48;;;;;;;67.75;13.65;;;10.60;99.90;;;;;;5036251;28;20211;-80
2023/03/10 02:36:19;;;;;;;71.45;16.02;;;10.60;99.90;;;;;;5035414;28;20572;-80
2023/03/10 02:38:45;;;;;;;68.63;11.93;;;10.70;99.90;;;;;;5038098;28;20195;-80
2023/03/10 02:41:27;;;;;;;69.10;6.87;;;10.70;99.90;;;;;;5039634;28;20172;-80
2023/03/10 02:43:54;;;;;;;71.80;10.88;;;10.80;99.90;;;;;;5033694;28;20180;-79
2023/03/10 02:46:21;;;;;;;68.70;11.70;;;10.70;99.90;;;;;;5039408;28;20299;-81
2023/03/10 02:48:47;;;;;;;71.18;13.52;;;10.70;99.90;;;;;;5038250;28;20196;-81
2023/03/10 02:51:37;;;;;;;69.23;13.23;;;10.70;99.90;;;;;;5036286;28;20170;-82
2023/03/10 02:54:07;;;;;;;69.55;12.10;;;10.60;99.90;;;;;;5038784;28;20438;-81
2023/03/10 02:56:36;;;;;;;70.05;12.77;;;10.60;99.90;;;;;;5038531;28;20150;-81
2023/03/10 02:59:04;;;;;;;71.18;12.45;;;10.60;99.90;;;;;;5038649;28;20223;-81
2023/03/10 03:01:30;;;;;;;68.57;11.07;;;10.60;99.90;;;;;;5038356;28;20575;-81
2023/03/10 03:03:57;;;;;;;70.75;14.05;;;10.50;99.90;;;;;;5038130;28;20176;-81
2023/03/10 03:06:23;;;;;;;69.00;10.93;;;10.50;99.90;;;;;;5037072;28;20173;-82
2023/03/10 03:08:48;;;;;;;70.57;11.60;;;10.50;99.90;;;;;;5037830;28;20197;-81
2023/03/10 03:11:14;;;;;;;71.97;13.57;;;10.50;99.90;;;;;;5035530;28;20165;-82
2023/03/10 03:13:40;;;;;;;70.20;13.25;;;10.40;99.90;;;;;;5038228;28;20640;-82
2023/03/10 03:16:10;;;;;;;75.20;14.13;;;10.40;99.90;;;;;;5034269;28;20671;-82
2023/03/10 03:18:36;;;;;;;70.43;12.25;;;10.40;99.90;;;;;;5030314;28;20204;-82
2023/03/10 03:21:11;;;;;;;70.50;11.53;;;10.30;99.90;;;;;;5021123;28;20165;-82
2023/03/10 03:23:37;;;;;;;70.60;12.07;;;10.30;99.90;;;;;;5030447;28;20438;-82
2023/03/10 03:26:11;;;;;;;68.68;13.00;;;10.30;99.90;;;;;;5038047;28;20170;-82
2023/03/10 03:28:37;;;;;;;73.35;11.98;;;10.20;99.90;;;;;;5038386;28;20231;-81
2023/03/10 03:31:03;;;;;;;72.90;14.15;;;10.20;99.90;;;;;;5037680;28;20655;-82
2023/03/10 03:33:29;;;;;;;70.97;15.80;;;10.20;99.90;;;;;;5029064;28;20190;-82
2023/03/10 03:35:55;;;;;;;70.57;14.30;;;10.20;99.90;;;;;;5037978;28;20263;-82
2023/03/10 03:38:20;;;;;;;70.47;13.67;;;10.20;99.90;;;;;;5037993;28;20173;-82
2023/03/10 03:40:46;;;;;;;74.63;15.77;;;10.10;99.90;;;;;;5037600;28;20188;-82
2023/03/10 03:43:12;;;;;;;69.03;10.83;;;10.10;99.90;;;;;;5038487;28;20223;-82
2023/03/10 03:45:38;;;;;;;74.85;12.10;;;10.10;99.90;;;;;;5038519;28;20408;-81
2023/03/10 03:48:04;;;;;;;69.90;9.67;;;10.10;99.90;;;;;;5037811;28;20195;-82
2023/03/10 03:50:29;;;;;;;73.80;12.87;;;10.10;99.90;;;;;;5027921;28;20173;-82
2023/03/10 03:52:56;;;;;;;73.47;11.03;;;10.10;99.90;;;;;;5038021;28;20193;-81
2023/03/10 03:55:21;;;;;;;67.53;11.35;;;10.10;99.90;;;;;;5037923;28;20172;-81
2023/03/10 03:57:47;;;;;;;69.30;10.00;;;10.10;99.90;;;;;;5038621;28;20628;-81
2023/03/10 04:00:22;;;;;;;70.27;13.20;;;10.00;99.90;;;;;;5037900;28;20245;-81
2023/03/10 04:02:47;;;;;;;76.85;14.63;;;10.00;99.90;;;;;;5036994;28;20427;-81
2023/03/10 04:05:13;;;;;;;73.47;11.87;;;9.90;99.90;;;;;;5037613;28;20687;-81
2023/03/10 04:07:42;;;;;;;69.87;13.67;;;9.90;99.90;;;;;;5029659;28;20684;-81
2023/03/10 04:10:11;;;;;;;73.43;16.48;;;9.80;99.90;;;;;;5035741;28;20448;-81
2023/03/10 04:12:37;;;;;;;71.75;13.82;;;9.80;99.90;;;;;;5037130;28;20185;-81
2023/03/10 04:15:03;;;;;;;71.70;15.00;;;9.80;99.90;;;;;;5037609;28;20215;-81
2023/03/10 04:17:29;;;;;;;70.05;12.48;;;9.70;99.90;;;;;;5036829;28;20165;-82
2023/03/10 04:19:55;;;;;;;68.37;10.07;;;9.70;99.90;;;;;;5037253;28;20180;-82
2023/03/10 04:22:21;;;;;;;68.53;8.23;;;9.70;99.90;;;;;;5035541;28;20197;-81
2023/03/10 04:24:46;;;;;;;69.80;9.70;;;9.70;99.90;;;;;;5036889;28;20532;-81
2023/03/10 04:27:12;;;;;;;70.70;13.77;;;9.60;99.90;;;;;;5036634;28;20175;-82
2023/03/10 04:29:38;;;;;;;71.93;10.87;;;9.50;99.90;;;;;;5036559;28;20553;-82
2023/03/10 04:32:04;;;;;;;72.47;16.07;;;9.40;99.90;;;;;;5036555;28;20215;-82
2023/03/10 04:34:30;;;;;;;74.15;14.75;;;9.30;99.90;;;;;;5027702;28;20428;-82
2023/03/10 04:36:56;;;;;;;73.78;16.85;;;9.30;99.90;;;;;;5035330;28;20177;-82
2023/03/10 04:39:22;;;;;;;71.37;16.57;;;9.30;99.90;;;;;;5035972;28;20169;-82
2023/03/10 04:41:47;;;;;;;75.00;17.73;;;9.30;99.90;;;;;;5029596;28;20189;-82
2023/03/10 04:44:17;;;;;;;74.67;15.50;;;9.20;99.90;;;;;;5036382;28;20407;-82
2023/03/10 04:46:42;;;;;;;73.30;15.15;;;9.20;99.90;;;;;;5036594;28;20164;-82
2023/03/10 04:49:14;;;;;;;74.70;16.30;;;9.20;99.90;;;;;;5036580;28;20185;-82
2023/03/10 04:51:40;;;;;;;72.70;12.57;;;9.20;99.90;;;;;;5036152;28;20505;-82
2023/03/10 04:54:05;;;;;;;70.67;11.20;;;9.20;99.90;;;;;;5035910;28;20153;-82
2023/03/10 04:56:31;;;;;;;75.47;9.60;;;9.20;99.90;;;;;;5036211;28;20510;-82
2023/03/10 04:58:57;;;;;;;69.13;7.40;;;9.20;99.90;;;;;;5036895;28;20223;-82
2023/03/10 05:01:22;;;;;;;71.47;9.70;;;9.20;99.90;;;;;;5035871;28;20521;-82
2023/03/10 05:03:48;;;;;;;71.20;8.30;;;9.20;99.90;;;;;;5035930;28;20193;-82
2023/03/10 05:06:19;;;;;;;69.10;7.87;;;9.20;99.90;;;;;;5035531;28;20239;-82
2023/03/10 05:08:45;;;;;;;71.18;9.15;;;9.20;99.90;;;;;;5029333;28;20273;-82
2023/03/10 05:11:11;;;;;;;72.65;9.18;;;9.20;99.90;;;;;;5036193;28;20165;-81
2023/03/10 05:13:37;;;;;;;72.93;9.25;;;9.20;99.90;;;;;;5028409;28;20196;-82
2023/03/10 05:16:03;;;;;;;77.97;9.23;;;9.10;99.90;;;;;;5036436;28;20197;-82
2023/03/10 05:18:29;;;;;;;75.15;8.95;;;9.10;99.90;;;;;;5027076;28;20175;-82
2023/03/10 05:20:57;;;;;;;69.37;7.07;;;9.10;99.90;;;;;;5036282;28;20192;-82
2023/03/10 05:23:24;;;;;;;68.78;9.05;;;9.10;99.90;;;;;;5035860;28;20181;-82
2023/03/10 05:25:50;;;;;;;73.50;10.30;;;9.10;99.90;;;;;;5035637;28;20169;-82
2023/03/10 05:28:16;;;;;;;70.43;7.67;;;9.10;99.90;;;;;;5035867;28;20172;-82
2023/03/10 05:30:41;;;;;;;72.25;9.63;;;9.10;99.90;;;;;;5180314;22;20572;-82
2023/03/10 05:33:07;;;;;;;68.10;8.17;;;9.10;99.90;;;;;;5035863;28;20240;-82
2023/03/10 05:35:33;;;;;;;71.17;8.13;;;9.10;99.90;;;;;;5036565;28;20219;-82
2023/03/10 05:43:05;;;;;;;70.72;6.97;;;9.00;99.90;;;;;;4961743;28;20202;-85
2023/03/10 05:52:58;;;;;;;;;;;;;;;;;;;;;
2023/03/10 05:59:39;;;;;;;;;;;;;;;;;;;;;
2023/03/10 06:05:57;;;;;;;75.80;11.40;;;9.00;99.90;;;;;;4536421;23;20224;-85
2023/03/10 06:17:03;;;;;;;70.43;11.52;;;9.10;99.90;;;;;;4915675;28;20214;-85
2023/03/10 06:26:42;;;;;;;72.05;12.75;;;9.10;99.90;;;;;;4981854;28;20290;-86
2023/03/10 06:29:49;;;;;;;;;;;;;;;;;;;;;
2023/03/10 06:38:19;;;;;;;74.38;14.98;;;9.10;99.90;;;;;;1102328;26;21317;-87
2023/03/10 06:42:11;;;;;;;;;;;;;;;;;;;;;
2023/03/10 06:45:43;;;;;;;67.53;11.50;;;9.20;99.90;;;;;;4937237;29;20187;-85
2023/03/10 06:48:44;;;;;;;68.07;8.75;;;9.20;99.90;;;;;;4921949;28;20180;-85
2023/03/10 06:51:37;;;;;;;;;;;;;;;;;;;;;
2023/03/10 06:53:56;;;;;;;70.35;8.27;;;9.30;99.90;;;;;;5047236;22;20229;-85
2023/03/10 06:56:21;;;;;;;66.38;7.05;;;9.30;99.90;;;;;;5037578;28;20643;-84
2023/03/10 06:58:48;;;;;;;67.93;6.47;;;9.40;99.90;;;;;;5039746;28;20165;-84
2023/03/10 07:01:26;;;;;;;72.93;9.75;;;9.50;99.90;;;;;;5038480;28;20563;-84
2023/03/10 07:03:53;;;;;;;71.38;10.55;;;9.50;99.90;;;;;;5018379;28;20158;-84
2023/03/10 07:06:19;;;;;;;69.03;11.35;;;9.50;99.90;;;;;;5017181;28;20170;-84
2023/03/10 07:08:45;;;;;;;70.18;14.70;;;9.50;99.90;;;;;;5019132;28;20185;-84
2023/03/10 07:11:11;;;;;;;70.63;13.03;;;9.60;99.90;;;;;;5019992;28;20158;-84
2023/03/10 07:13:37;;;;;;;72.40;10.18;;;9.60;99.90;;;;;;5010531;28;20247;-84
2023/03/10 07:16:03;;;;;;;69.30;14.63;;;9.60;99.90;;;;;;5018115;28;20166;-84
2023/03/10 07:18:32;;;;;;;69.78;13.35;;;9.50;99.90;;;;;;5009927;28;20170;-84
2023/03/10 07:21:00;;;;;;;67.38;12.40;;;9.50;99.90;;;;;;5017150;28;20304;-84
2023/03/10 07:23:26;;;;;;;69.07;12.52;;;9.50;99.90;;;;;;5010697;28;20189;-83
2023/03/10 07:25:54;;;;;;;67.77;11.73;;;9.60;99.90;;;;;;5013476;28;20177;-84
2023/03/10 07:28:23;;;;;;;69.05;11.32;;;9.60;99.90;;;;;;5018770;28;20170;-84
2023/03/10 07:30:49;;;;;;;69.72;10.23;;;9.60;99.90;;;;;;5018011;28;20168;-85
2023/03/10 07:33:17;;;;;;;75.57;14.30;;;9.60;99.90;;;;;;5020063;28;20256;-84
2023/03/10 07:35:44;;;;;;;72.45;15.90;;;9.50;99.90;;;;;;5011308;28;20412;-84
2023/03/10 07:38:10;;;;;;;73.90;17.00;;;9.50;99.90;;;;;;5018120;28;20506;-84
2023/03/10 07:40:39;;;;;;;71.57;15.00;;;9.50;99.90;;;;;;5009851;28;20173;-85
2023/03/10 07:43:04;;;;;;;70.57;16.27;;;9.50;99.90;;;;;;5017082;28;20944;-84
2023/03/10 07:45:32;;;;;;;69.00;14.00;;;9.50;99.90;;;;;;5017362;28;20177;-84
2023/03/10 07:47:58;;;;;;;70.20;12.75;;;9.50;99.90;;;;;;5017370;28;20188;-85
2023/03/10 07:50:24;;;;;;;71.32;9.70;;;9.60;99.90;;;;;;5018467;28;20257;-84
2023/03/10 07:52:50;;;;;;;73.10;9.82;;;9.60;99.90;;;;;;5011291;28;20272;-83
2023/03/10 07:55:17;;;;;;;68.37;8.07;;;9.60;99.90;;;;;;5017660;28;20248;-84
2023/03/10 07:57:42;;;;;;;74.22;8.18;;;9.60;99.90;;;;;;5018106;28;20244;-85
2023/03/10 08:00:09;;;;;;;69.37;7.97;;;9.50;99.90;;;;;;5014195;28;20208;-85
2023/03/10 08:02:35;;;;;;;70.95;7.55;;;9.50;99.90;;;;;;5016731;28;20761;-85
2023/03/10 08:05:00;;;;;;;76.23;8.37;;;9.50;99.90;;;;;;5020873;28;20189;-85
2023/03/10 08:07:26;;;;;;;69.80;7.50;;;9.50;99.90;;;;;;5011751;28;20699;-86
2023/03/10 08:09:55;;;;;;;68.70;9.17;;;9.50;99.90;;;;;;5019209;28;20198;-85
2023/03/10 08:12:23;;;;;;;69.63;12.13;;;9.50;99.90;;;;;;5020695;28;20181;-85
2023/03/10 08:14:50;;;;;;;77.95;16.02;;;9.50;99.90;;;;;;5013681;28;20632;-86
2023/03/10 08:17:15;;;;;;;71.22;13.70;;;9.60;99.90;;;;;;5019539;28;20166;-85
2023/03/10 08:19:46;;;;;;;73.40;12.80;;;9.80;99.90;;;;;;5020254;28;20173;-86
2023/03/10 08:22:12;;;;;;;70.72;9.07;;;10.00;99.90;;;;;;5019353;28;20519;-86
2023/03/10 08:24:38;;;;;;;70.07;8.13;;;10.20;99.90;;;;;;5011790;28;20193;-86
2023/03/10 08:27:07;;;;;;;68.33;7.57;;;10.40;99.90;;;;;;5018030;28;20174;-86
2023/03/10 08:29:33;;;;;;;67.25;7.57;;;10.60;99.90;;;;;;5019370;28;20476;-85
2023/03/10 08:31:59;;;;;;;72.07;12.10;;;10.60;99.90;;;;;;5014065;28;20190;-83
2023/03/10 08:34:25;;;;;;;71.30;16.50;;;10.70;99.90;;;;;;5008249;28;20716;-85
2023/03/10 08:36:50;;;;;;;76.80;13.57;;;10.80;99.90;;;;;;5018593;28;20729;-86
2023/03/10 08:39:19;;;;;;;66.20;4.00;;;10.90;99.90;;;;;;5018272;28;20173;-86
2023/03/10 08:41:47;;;;;;;69.10;4.32;;;11.10;99.90;;;;;;5011357;28;20174;-84
2023/03/10 08:44:16;;;;;;;66.05;4.20;;;11.30;99.90;;;;;;5016986;28;20170;-84
2023/03/10 08:49:13;;;;;;;67.63;6.32;;;11.50;99.90;;;;;;5053307;28;20216;-85
2023/03/10 08:51:47;;;;;;;70.43;6.30;;;11.50;99.90;;;;;;5055152;28;20183;-85
2023/03/10 08:54:15;;;;;;;66.28;4.85;;;11.40;99.90;;;;;;5055180;28;20247;-84
2023/03/10 08:56:41;;;;;;;67.00;4.43;;;11.50;99.90;;;;;;5034147;28;20651;-84
2023/03/10 08:59:07;;;;;;;66.03;5.18;;;11.60;99.90;;;;;;5052948;28;20180;-85
2023/03/10 09:01:35;;;;;;;68.60;4.97;;;11.80;99.90;;;;;;5055050;28;20156;-85
2023/03/10 09:04:03;;;;;;;74.50;5.63;;;11.70;99.90;;;;;;5034153;28;20194;-84
2023/03/10 09:06:29;;;;;;;66.53;4.95;;;11.70;99.90;;;;;;5033643;28;20174;-84
2023/03/10 09:08:55;;;;;;;68.03;5.10;;;11.80;99.90;;;;;;5033867;28;20706;-85
2023/03/10 09:11:24;;;;;;;65.27;4.07;;;11.80;99.90;;;;;;5054571;28;20431;-84
2023/03/10 09:13:50;;;;;;;69.85;3.65;;;12.10;99.90;;;;;;5034613;28;20432;-84
2023/03/10 09:16:16;;;;;;;66.03;4.00;;;12.20;99.90;;;;;;5054559;28;20164;-85
2023/03/10 09:18:45;;;;;;;66.30;3.57;;;12.30;99.90;;;;;;5035217;28;20195;-85
2023/03/10 09:21:13;;;;;;;65.60;3.70;;;12.50;99.90;;;;;;5054968;28;20403;-84
2023/03/10 09:23:41;;;;;;;70.18;4.25;;;12.50;99.90;;;;;;5034679;28;20283;-85
2023/03/10 09:26:09;;;;;;;66.90;4.90;;;12.60;99.90;;;;;;5054510;28;20164;-86
2023/03/10 09:28:36;;;;;;;65.13;3.80;;;12.70;99.90;;;;;;5034971;28;20192;-85
2023/03/10 09:31:06;;;;;;;69.93;4.43;;;12.70;99.90;;;;;;5036303;28;20167;-85
2023/03/10 09:33:32;;;;;;;67.35;3.63;;;12.70;99.90;;;;;;5036697;28;20189;-85
2023/03/10 09:35:58;;;;;;;68.55;4.03;;;12.70;99.90;;;;;;5035467;28;20235;-84
2023/03/10 09:38:24;;;;;;;66.00;3.15;;;12.60;99.90;;;;;;5038770;28;20226;-85
2023/03/10 09:41:17;;;;;;;64.88;2.92;;;12.60;99.90;;;;;;5041677;28;20167;-86
2023/03/10 09:43:49;;;;;;;63.83;3.28;;;12.60;99.90;;;;;;5060694;28;20299;-86
2023/03/10 09:46:35;;;;;;;66.95;3.17;;;12.60;99.90;;;;;;5041478;28;20211;-87
2023/03/10 09:49:30;;;;;;;65.80;3.25;;;12.60;99.90;;;;;;5042369;28;20205;-86
2023/03/10 09:52:21;;;;;;;65.32;3.30;;;12.60;99.90;;;;;;5063362;28;20184;-85
2023/03/10 09:55:29;;;;;;;66.57;5.38;;;12.70;99.90;;;;;;5063704;28;20148;-86
2023/03/10 09:57:56;;;;;;;66.03;3.95;;;12.80;99.90;;;;;;5060012;28;20172;-86
2023/03/10 10:00:34;;;;;;;66.10;3.83;;;12.70;99.90;;;;;;5063107;28;20202;-86
2023/03/10 10:03:15;;;;;;;65.57;3.97;;;12.80;99.90;;;;;;5062532;28;20270;-87
2023/03/10 10:05:42;;;;;;;69.10;4.25;;;12.70;99.90;;;;;;5041624;28;20176;-85
2023/03/10 10:08:22;;;;;;;68.70;4.60;;;12.70;99.90;;;;;;5060450;28;20191;-85
2023/03/10 10:11:02;;;;;;;67.32;4.35;;;12.70;99.90;;;;;;5062598;28;20466;-85
2023/03/10 10:13:29;;;;;;;68.65;4.45;;;12.80;99.90;;;;;;5062531;28;20180;-86
2023/03/10 10:16:22;;;;;;;66.95;4.22;;;13.00;99.90;;;;;;5061924;28;20200;-85
2023/03/10 10:19:11;;;;;;;66.88;4.20;;;13.20;99.90;;;;;;5038950;28;20268;-86
2023/03/10 10:21:46;;;;;;;66.45;3.80;;;13.40;99.90;;;;;;5040943;28;20578;-86
2023/03/10 10:24:12;;;;;;;64.78;3.85;;;13.70;99.90;;;;;;5044067;28;20216;-86
2023/03/10 10:26:37;;;;;;;68.20;4.40;;;13.70;99.90;;;;;;5041005;28;20169;-87
2023/03/10 10:29:22;;;;;;;64.30;3.90;;;13.60;99.90;;;;;;5041728;28;20203;-85
2023/03/10 10:32:08;;;;;;;64.97;3.80;;;13.40;99.90;;;;;;5039665;28;20196;-87
2023/03/10 10:34:36;;;;;;;69.30;3.35;;;13.40;99.90;;;;;;5059829;28;20191;-85
2023/03/10 10:37:18;;;;;;;65.50;2.85;;;13.50;99.90;;;;;;5059523;28;20223;-85
2023/03/10 10:39:46;;;;;;;66.72;3.45;;;13.30;99.90;;;;;;5059942;28;20227;-85
2023/03/10 10:42:23;;;;;;;65.85;3.13;;;12.90;99.90;;;;;;5059267;28;20180;-86
2023/03/10 10:44:55;;;;;;;64.53;2.33;;;12.70;99.90;;;;;;5059831;28;20155;-86
2023/03/10 10:47:31;;;;;;;64.78;2.92;;;12.60;99.90;;;;;;5058988;28;20177;-86
2023/03/10 10:50:25;;;;;;;64.20;3.63;;;12.60;99.90;;;;;;5059085;28;20518;-85
2023/03/10 10:53:16;;;;;;;68.28;4.65;;;12.50;99.90;;;;;;5058275;28;20200;-86
2023/03/10 10:55:44;;;;;;;65.55;4.72;;;12.40;99.90;;;;;;5030828;28;20226;-86
2023/03/10 10:58:29;;;;;;;63.85;4.70;;;12.40;99.90;;;;;;5061175;28;20635;-86
2023/03/10 11:01:20;;;;;;;67.60;4.70;;;12.40;99.90;;;;;;5040025;28;20169;-85
2023/03/10 11:03:47;;;;;;;67.72;4.93;;;12.50;99.90;;;;;;5056134;28;20204;-86
2023/03/10 11:06:23;;;;;;;64.28;3.83;;;12.50;99.90;;;;;;5042521;28;20641;-86
2023/03/10 11:08:50;;;;;;;67.35;4.05;;;12.60;99.90;;;;;;5061033;28;20168;-86
2023/03/10 11:11:42;;;;;;;65.03;3.92;;;12.40;99.90;;;;;;5042183;28;20169;-86
2023/03/10 11:14:14;;;;;;;64.53;3.67;;;12.40;99.90;;;;;;5039821;28;20161;-85
2023/03/10 11:17:01;;;;;;;64.47;3.55;;;12.30;99.90;;;;;;5060951;28;20160;-86
2023/03/10 11:19:50;;;;;;;64.63;3.22;;;12.20;99.90;;;;;;5061189;28;20184;-87
2023/03/10 11:22:26;;;;;;;64.28;3.45;;;12.20;99.90;;;;;;5062383;28;20180;-87
2023/03/10 11:25:00;;;;;;;70.32;7.55;;;12.00;99.90;;;;;;5061058;28;20404;-87
2023/03/10 11:28:03;;;;;;;64.72;5.50;;;11.80;99.90;;;;;;5025364;28;20164;-87
2023/03/10 11:30:32;;;;;;;66.55;4.35;;;11.70;99.90;;;;;;5039982;28;20200;-87
2023/03/10 11:33:39;;;;;;;67.15;3.80;;;11.60;99.90;;;;;;5057401;28;20188;-85
2023/03/10 11:36:27;;;;;;;67.40;3.70;;;11.50;99.90;;;;;;5041553;28;20161;-86
2023/03/10 11:39:33;;;;;;;65.20;4.28;;;11.40;99.90;;;;;;5160955;22;20400;-81
2023/03/10 11:42:22;;;;;;;67.47;3.97;;;11.50;99.90;;;;;;5038027;28;20196;-81
2023/03/10 11:45:06;;;;;;;65.00;3.50;;;11.40;99.90;;;;;;5031912;28;20272;-82
2023/03/10 11:47:53;;;;;;;66.70;3.80;;;11.40;99.90;;;;;;5038580;28;20156;-82
2023/03/10 11:50:40;;;;;;;65.95;4.82;;;11.30;99.90;;;;;;5038587;28;20629;-82
2023/03/10 11:53:18;;;;;;;70.38;5.22;;;11.10;99.90;;;;;;5037749;28;20264;-82
2023/03/10 11:55:44;;;;;;;67.80;6.28;;;11.00;99.90;;;;;;5037557;28;20210;-82
2023/03/10 11:58:35;;;;;;;67.38;6.47;;;10.80;99.90;;;;;;5033827;28;20173;-81
2023/03/10 12:01:02;;;;;;;69.30;7.85;;;10.80;99.90;;;;;;5037648;28;20161;-81
2023/03/10 12:03:30;;;;;;;68.25;13.20;;;10.90;99.90;;;;;;5036764;28;20189;-81
2023/03/10 12:06:00;;;;;;;69.82;12.10;;;10.80;99.90;;;;;;5036544;28;20249;-81
2023/03/10 12:08:33;;;;;;;66.22;8.98;;;10.90;99.90;;;;;;5037205;28;20216;-81
2023/03/10 12:11:03;;;;;;;67.03;8.20;;;11.10;99.90;;;;;;5032132;28;20153;-81
2023/03/10 12:14:06;;;;;;;67.25;8.60;;;11.10;99.90;;;;;;5028185;28;20608;-81
2023/03/10 12:16:36;;;;;;;66.95;9.52;;;11.20;99.90;;;;;;4995828;28;20173;-81
2023/03/10 12:19:11;;;;;;;66.40;6.10;;;11.20;99.90;;;;;;5025284;28;20197;-81
2023/03/10 12:26:10;;;;;;;65.70;6.50;;;11.50;99.90;;;;;;4991676;28;20255;-81
2023/03/10 12:32:31;;;;;;;65.15;4.97;;;11.20;99.90;;;;;;5070616;22;20195;-81
2023/03/10 12:35:51;;;;;;;64.60;4.85;;;11.30;99.90;;;;;;4998241;28;20529;-81
2023/03/10 12:39:26;;;;;;;64.78;4.80;;;11.40;99.90;;;;;;5004275;28;20231;-81
2023/03/10 12:42:20;;;;;;;65.07;5.75;;;11.30;99.90;;;;;;4997527;23;20192;-81
2023/03/10 12:45:27;;;;;;;64.35;4.85;;;11.30;99.90;;;;;;4993151;28;20181;-81
2023/03/10 12:50:53;;;;;;;65.15;5.15;;;11.50;99.90;;;;;;5125371;22;20187;-81
2023/03/10 12:54:18;;;;;;;;;;;;;;;;;;;;;
2023/03/10 12:57:14;;;;;;;64.78;5.22;;;11.60;99.90;;;;;;5051246;28;20171;-81
2023/03/10 13:03:50;;;;;;;64.65;4.95;;;11.60;99.90;;;;;;4953813;28;20190;-81
2023/03/10 13:06:42;;;;;;;64.63;4.82;;;11.60;99.90;;;;;;4975623;28;20155;-81
2023/03/10 13:09:30;;;;;;;65.40;5.10;;;11.50;99.90;;;;;;5037781;28;20168;-81
2023/03/10 13:12:05;;;;;;;65.20;5.63;;;11.60;99.90;;;;;;5034806;28;20193;-81
2023/03/10 13:14:44;;;;;;;66.65;6.75;;;11.50;99.90;;;;;;5034858;28;20169;-81
2023/03/10 13:17:30;;;;;;;65.95;6.63;;;11.40;99.90;;;;;;5054254;28;20191;-81
2023/03/10 13:20:04;;;;;;;67.53;7.10;;;11.40;99.90;;;;;;5055720;28;20275;-81
2023/03/10 13:22:32;;;;;;;65.40;6.25;;;11.20;99.90;;;;;;5033706;28;20201;-81
2023/03/10 13:25:08;;;;;;;65.25;5.80;;;11.20;99.90;;;;;;5034593;28;20187;-81
2023/03/10 13:27:42;;;;;;;65.30;7.10;;;11.30;99.90;;;;;;5056004;28;20152;-81
2023/03/10 13:30:26;;;;;;;65.47;6.57;;;11.30;99.90;;;;;;5056041;28;20163;-81
2023/03/10 13:33:08;;;;;;;67.60;7.93;;;11.40;99.90;;;;;;5055757;28;20199;-81
2023/03/10 13:35:40;;;;;;;66.53;6.70;;;11.50;99.90;;;;;;5049513;28;20279;-81
2023/03/10 13:38:32;;;;;;;67.30;6.97;;;11.60;99.90;;;;;;5055363;28;20160;-81
2023/03/10 13:41:04;;;;;;;68.78;7.68;;;11.60;99.90;;;;;;5052199;28;20541;-81
2023/03/10 13:43:40;;;;;;;66.32;7.50;;;11.60;99.90;;;;;;5048086;28;20322;-81
2023/03/10 13:46:33;;;;;;;66.85;8.45;;;11.40;99.90;;;;;;5034490;28;20168;-81
2023/03/10 13:49:08;;;;;;;64.78;6.85;;;11.40;99.90;;;;;;5055361;28;20149;-81
2023/03/10 13:52:00;;;;;;;65.68;8.77;;;11.30;99.90;;;;;;5055222;28;20206;-80
2023/03/10 13:54:44;;;;;;;69.78;11.10;;;11.30;99.90;;;;;;5054810;28;20184;-80
2023/03/10 13:57:30;;;;;;;65.32;8.10;;;11.20;99.90;;;;;;5036290;28;20161;-81
2023/03/10 14:00:09;;;;;;;64.72;6.22;;;10.90;99.90;;;;;;5034082;28;20197;-81
2023/03/10 14:02:38;;;;;;;67.20;5.93;;;10.70;99.90;;;;;;5055712;28;20212;-81
2023/03/10 14:05:05;;;;;;;66.53;7.60;;;10.60;99.90;;;;;;5055699;28;20169;-81
2023/03/10 14:07:34;;;;;;;64.85;5.65;;;10.60;99.90;;;;;;5055052;28;20187;-81
2023/03/10 14:10:15;;;;;;;66.15;4.55;;;10.60;99.90;;;;;;5034134;28;20276;-81
2023/03/10 14:13:02;;;;;;;;;;;;;;;;;;;;;
2023/03/10 14:15:37;;;;;;;66.25;5.88;;;10.50;99.90;;;;;;5055340;28;20555;-81
2023/03/10 14:18:08;;;;;;;65.53;6.20;;;10.60;99.90;;;;;;5034876;28;20161;-81